createdAt,value
2022-08-21T00:00:24.691Z,17.90
2022-08-21T00:04:07.881Z,17.80
2022-08-21T00:07:49.897Z,17.80
2022-08-21T00:11:31.733Z,17.70
2022-08-21T00:15:16.598Z,17.70
2022-08-21T00:18:58.851Z,17.60
2022-08-21T00:22:41.415Z,17.60
2022-08-21T00:26:23.323Z,17.60
2022-08-21T00:30:07.531Z,17.50
2022-08-21T00:33:49.364Z,17.50
2022-08-21T00:37:31.204Z,17.40
2022-08-21T00:41:37.870Z,17.40
2022-08-21T00:45:19.024Z,17.40
2022-08-21T00:49:01.155Z,17.40
2022-08-21T00:52:43.386Z,17.30
2022-08-21T00:56:26.103Z,17.20
2022-08-21T01:00:12.681Z,17.20
2022-08-21T01:03:55.088Z,17.10
2022-08-21T01:07:37.597Z,17.10
2022-08-21T01:11:19.589Z,17.10
2022-08-21T01:15:04.167Z,17.00
2022-08-21T01:18:46.878Z,17.00
2022-08-21T01:22:30.204Z,16.90
2022-08-21T01:26:14.640Z,16.90
2022-08-21T01:30:02.153Z,16.90
2022-08-21T01:33:47.327Z,16.90
2022-08-21T01:37:29.199Z,16.90
2022-08-21T01:41:11.298Z,16.80
2022-08-21T01:44:54.791Z,16.80
2022-08-21T01:48:38.688Z,16.70
2022-08-21T01:52:20.756Z,16.70
2022-08-21T01:56:12.097Z,16.70
2022-08-21T01:59:54.950Z,16.70
2022-08-21T02:03:37.452Z,16.60
2022-08-21T02:07:19.747Z,16.60
2022-08-21T02:11:01.738Z,16.60
2022-08-21T02:14:43.735Z,16.50
2022-08-21T02:18:25.824Z,16.50
2022-08-21T02:22:11.156Z,16.50
2022-08-21T02:25:53.088Z,16.50
2022-08-21T02:29:35.027Z,16.40
2022-08-21T02:33:17.216Z,16.40
2022-08-21T02:36:59.870Z,16.40
2022-08-21T02:40:47.965Z,16.40
2022-08-21T02:44:34.537Z,16.50
2022-08-21T02:48:20.392Z,16.50
2022-08-21T02:52:02.340Z,16.40
2022-08-21T02:55:49.453Z,16.40
2022-08-21T02:59:31.273Z,16.40
2022-08-21T03:03:14.925Z,16.50
2022-08-21T03:06:56.880Z,16.50
2022-08-21T03:10:41.261Z,16.50
2022-08-21T03:14:23.099Z,16.50
2022-08-21T03:18:06.586Z,16.50
2022-08-21T03:21:48.521Z,16.60
2022-08-21T03:25:40.037Z,16.60
2022-08-21T03:29:22.571Z,16.60
2022-08-21T03:33:04.564Z,16.60
2022-08-21T03:36:46.542Z,16.60
2022-08-21T03:40:28.552Z,16.60
2022-08-21T03:44:10.444Z,16.50
2022-08-21T03:48:04.894Z,16.50
2022-08-21T03:51:46.828Z,16.40
2022-08-21T03:55:29.190Z,16.30
2022-08-21T03:59:11.388Z,16.30
2022-08-21T04:02:53.641Z,16.30
2022-08-21T04:06:37.882Z,16.30
2022-08-21T04:10:20.408Z,16.30
2022-08-21T04:14:02.547Z,16.30
2022-08-21T04:17:44.525Z,16.20
2022-08-21T04:21:26.452Z,16.20
2022-08-21T04:25:09.852Z,16.20
2022-08-21T04:28:51.771Z,16.20
2022-08-21T04:32:33.873Z,16.20
2022-08-21T04:36:15.787Z,16.20
2022-08-21T04:39:59.095Z,16.10
2022-08-21T04:43:43.617Z,16.10
2022-08-21T04:47:46.826Z,16.10
2022-08-21T04:51:33.185Z,16.20
2022-08-21T04:55:17.342Z,16.10
2022-08-21T04:59:05.496Z,16.20
2022-08-21T05:02:49.016Z,16.20
2022-08-21T05:06:34.694Z,16.20
2022-08-21T05:10:16.781Z,16.20
2022-08-21T05:13:59.495Z,16.20
2022-08-21T05:17:52.359Z,16.20
2022-08-21T05:21:40.901Z,16.20
2022-08-21T05:25:23.685Z,16.20
2022-08-21T05:29:08.567Z,16.20
2022-08-21T05:32:59.532Z,16.10
2022-08-21T05:36:41.533Z,16.10
2022-08-21T05:40:24.129Z,16.10
2022-08-21T05:44:10.341Z,16.10
2022-08-21T05:47:53.184Z,16.20
2022-08-21T05:51:35.228Z,16.20
2022-08-21T05:55:17.195Z,16.20
2022-08-21T05:58:59.247Z,16.20
2022-08-21T06:02:42.042Z,16.30
2022-08-21T06:06:24.146Z,16.30
2022-08-21T06:10:06.482Z,16.30
2022-08-21T06:13:49.143Z,16.40
2022-08-21T06:17:31.086Z,16.30
2022-08-21T06:21:14.750Z,16.40
2022-08-21T06:24:56.679Z,16.40
2022-08-21T06:28:39.454Z,16.40
2022-08-21T06:32:21.498Z,16.40
2022-08-21T06:36:04.331Z,16.50
2022-08-21T06:39:46.193Z,16.50
2022-08-21T06:43:39.197Z,16.50
2022-08-21T06:47:21.768Z,16.50
2022-08-21T06:51:04.197Z,16.60
2022-08-21T06:54:46.428Z,16.70
2022-08-21T06:58:28.408Z,16.70
2022-08-21T07:02:10.259Z,16.80
2022-08-21T07:05:52.720Z,16.80
2022-08-21T07:09:34.640Z,17.00
2022-08-21T07:13:17.573Z,17.00
2022-08-21T07:16:59.475Z,17.20
2022-08-21T07:20:42.444Z,17.20
2022-08-21T07:24:24.476Z,17.20
2022-08-21T07:28:06.348Z,17.40
2022-08-21T07:31:48.230Z,17.50
2022-08-21T07:35:32.177Z,17.60
2022-08-21T07:39:14.355Z,17.70
2022-08-21T07:42:56.270Z,17.80
2022-08-21T07:46:38.895Z,17.80
2022-08-21T07:50:21.142Z,17.90
2022-08-21T07:54:03.020Z,18.00
2022-08-21T07:57:45.415Z,17.90
2022-08-21T08:01:27.921Z,18.00
2022-08-21T08:05:12.068Z,18.10
2022-08-21T08:08:53.898Z,18.10
2022-08-21T08:12:36.829Z,18.20
2022-08-21T08:16:19.376Z,18.20
2022-08-21T08:20:02.231Z,18.30
2022-08-21T08:23:46.062Z,18.30
2022-08-21T08:27:27.853Z,18.50
2022-08-21T08:31:09.963Z,18.60
2022-08-21T08:34:52.680Z,18.70
2022-08-21T08:38:34.504Z,18.80
2022-08-21T08:42:32.713Z,18.90
2022-08-21T08:46:19.819Z,19.00
2022-08-21T08:50:22.684Z,19.10
2022-08-21T08:54:10.248Z,19.30
2022-08-21T08:57:53.060Z,19.40
2022-08-21T09:01:38.782Z,19.60
2022-08-21T09:05:31.725Z,19.80
2022-08-21T09:09:13.565Z,19.90
2022-08-21T09:13:22.591Z,20.10
2022-08-21T09:17:42.226Z,20.40
2022-08-21T09:21:42.774Z,20.70
2022-08-21T09:25:28.530Z,21.00
2022-08-21T09:29:12.826Z,21.30
2022-08-21T09:32:54.780Z,21.50
2022-08-21T09:36:51.414Z,21.70
2022-08-21T09:40:47.523Z,22.00
2022-08-21T09:44:31.038Z,22.10
2022-08-21T09:48:21.014Z,22.30
2022-08-21T09:52:05.105Z,22.40
2022-08-21T09:56:17.464Z,22.80
2022-08-21T10:00:27.036Z,23.70
2022-08-21T10:04:10.195Z,24.90
2022-08-21T10:07:52.753Z,26.10
2022-08-21T10:11:35.917Z,27.10
2022-08-21T10:15:49.292Z,28.00
2022-08-21T10:19:57.719Z,29.00
2022-08-21T10:24:11.778Z,29.70
2022-08-21T10:28:27.295Z,30.30
2022-08-21T10:32:37.126Z,31.10
2022-08-21T10:36:53.569Z,31.70
2022-08-21T10:40:43.551Z,32.20
2022-08-21T10:44:59.295Z,32.80
2022-08-21T10:49:04.342Z,33.20
2022-08-21T10:53:09.111Z,33.60
2022-08-21T10:56:56.703Z,33.70
2022-08-21T11:00:47.606Z,33.80
2022-08-21T11:04:57.070Z,34.30
2022-08-21T11:08:51.749Z,34.80
2022-08-21T11:12:45.953Z,35.50
2022-08-21T11:16:50.055Z,35.60
2022-08-21T11:20:44.078Z,35.10
2022-08-21T11:24:35.165Z,34.40
2022-08-21T11:28:31.606Z,33.70
2022-08-21T11:32:16.197Z,32.90
2022-08-21T11:36:35.731Z,32.90
2022-08-21T11:40:56.291Z,32.80
2022-08-21T11:44:44.120Z,32.30
2022-08-21T11:48:50.080Z,31.70
2022-08-21T11:52:38.302Z,31.50
2022-08-21T11:56:29.088Z,32.10
2022-08-21T12:00:26.258Z,33.00
2022-08-21T12:04:17.754Z,33.40
2022-08-21T12:08:22.724Z,33.30
2022-08-21T12:12:23.707Z,33.50
2022-08-21T12:16:17.111Z,34.00
2022-08-21T12:20:21.977Z,34.20
2022-08-21T12:24:20.429Z,34.00
2022-08-21T12:28:15.199Z,33.50
2022-08-21T12:32:25.925Z,33.10
2022-08-21T12:36:11.639Z,32.50
2022-08-21T12:39:55.573Z,32.10
2022-08-21T12:43:48.608Z,31.70
2022-08-21T12:47:54.087Z,31.50
2022-08-21T12:52:01.408Z,31.20
2022-08-21T12:55:44.748Z,31.00
2022-08-21T12:59:26.730Z,31.00
2022-08-21T13:03:09.859Z,30.80
2022-08-21T13:06:55.513Z,30.60
2022-08-21T13:10:38.587Z,30.60
2022-08-21T13:14:45.910Z,30.60
2022-08-21T13:18:30.659Z,30.70
2022-08-21T13:22:33.994Z,30.90
2022-08-21T13:26:21.793Z,31.20
2022-08-21T13:30:09.570Z,31.50
2022-08-21T13:33:52.073Z,31.60
2022-08-21T13:37:33.904Z,31.90
2022-08-21T13:41:28.647Z,32.20
2022-08-21T13:45:32.297Z,32.40
2022-08-21T13:49:17.330Z,32.50
2022-08-21T13:53:02.965Z,32.40
2022-08-21T13:56:47.792Z,32.20
2022-08-21T14:00:35.729Z,31.80
2022-08-21T14:04:25.984Z,31.60
2022-08-21T14:08:31.936Z,31.90
2022-08-21T14:12:30.298Z,32.20
2022-08-21T14:16:22.736Z,32.20
2022-08-21T14:20:07.281Z,32.70
2022-08-21T14:23:49.085Z,32.90
2022-08-21T14:27:32.107Z,32.80
2022-08-21T14:31:22.437Z,32.80
2022-08-21T14:35:04.556Z,32.70
2022-08-21T14:38:46.340Z,32.80
2022-08-21T14:42:28.518Z,32.80
2022-08-21T14:46:10.385Z,33.30
2022-08-21T14:49:54.832Z,33.40
2022-08-21T14:53:36.631Z,32.90
2022-08-21T14:57:18.559Z,32.40
2022-08-21T15:01:04.443Z,32.00
2022-08-21T15:04:46.327Z,31.60
2022-08-21T15:08:28.209Z,31.20
2022-08-21T15:12:11.267Z,30.90
2022-08-21T15:15:57.047Z,30.70
2022-08-21T15:19:39.300Z,30.60
2022-08-21T15:23:21.670Z,30.50
2022-08-21T15:27:07.111Z,30.30
2022-08-21T15:30:49.975Z,30.20
2022-08-21T15:34:32.408Z,30.10
2022-08-21T15:38:15.679Z,30.10
2022-08-21T15:41:57.661Z,29.90
2022-08-21T15:45:39.845Z,29.80
2022-08-21T15:49:21.973Z,29.70
2022-08-21T15:53:04.370Z,29.60
2022-08-21T15:56:49.547Z,29.50
2022-08-21T16:00:34.811Z,29.50
2022-08-21T16:04:28.779Z,29.40
2022-08-21T16:08:11.920Z,29.30
2022-08-21T16:11:54.215Z,29.20
2022-08-21T16:15:36.088Z,29.10
2022-08-21T16:19:18.063Z,28.80
2022-08-21T16:23:00.063Z,28.70
2022-08-21T16:26:42.011Z,28.60
2022-08-21T16:30:26.311Z,28.40
2022-08-21T16:34:17.575Z,28.30
2022-08-21T16:37:59.404Z,28.20
2022-08-21T16:41:41.468Z,28.00
2022-08-21T16:45:23.423Z,27.90
2022-08-21T16:49:05.280Z,27.80
2022-08-21T16:52:47.099Z,27.60
2022-08-21T16:56:29.126Z,27.50
2022-08-21T17:00:15.435Z,27.30
2022-08-21T17:03:57.652Z,27.30
2022-08-21T17:07:39.551Z,27.10
2022-08-21T17:11:37.203Z,27.00
2022-08-21T17:15:24.719Z,26.90
2022-08-21T17:19:07.879Z,26.80
2022-08-21T17:22:50.178Z,26.70
2022-08-21T17:26:32.572Z,26.60
2022-08-21T17:30:15.813Z,26.40
2022-08-21T17:33:57.744Z,26.30
2022-08-21T17:37:39.565Z,26.20
2022-08-21T17:41:22.418Z,26.10
2022-08-21T17:45:05.431Z,26.00
2022-08-21T17:48:47.639Z,26.00
2022-08-21T17:52:29.496Z,25.90
2022-08-21T17:56:14.286Z,25.90
2022-08-21T17:59:58.499Z,25.80
2022-08-21T18:03:40.883Z,25.70
2022-08-21T18:07:31.749Z,25.60
2022-08-21T18:11:23.792Z,25.50
2022-08-21T18:15:07.032Z,25.40
2022-08-21T18:18:51.621Z,25.30
2022-08-21T18:22:33.808Z,25.20
2022-08-21T18:26:24.312Z,25.10
2022-08-21T18:30:08.069Z,25.00
2022-08-21T18:33:58.515Z,24.90
2022-08-21T18:37:40.674Z,24.90
2022-08-21T18:41:22.750Z,24.80
2022-08-21T18:45:09.183Z,24.70
2022-08-21T18:48:51.091Z,24.70
2022-08-21T18:52:35.591Z,24.60
2022-08-21T18:56:18.425Z,24.50
2022-08-21T19:00:03.555Z,24.50
2022-08-21T19:03:45.952Z,24.40
2022-08-21T19:07:31.995Z,24.30
2022-08-21T19:11:14.136Z,24.30
2022-08-21T19:14:56.061Z,24.10
2022-08-21T19:18:41.968Z,24.00
2022-08-21T19:22:23.952Z,23.80
2022-08-21T19:26:08.181Z,23.70
2022-08-21T19:29:50.533Z,23.60
2022-08-21T19:33:39.605Z,23.50
2022-08-21T19:37:21.408Z,23.30
2022-08-21T19:41:06.835Z,23.30
2022-08-21T19:44:51.931Z,23.20
2022-08-21T19:48:37.807Z,23.10
2022-08-21T19:52:22.653Z,23.00
2022-08-21T19:56:18.032Z,22.90
2022-08-21T20:00:00.005Z,22.80
2022-08-21T20:03:43.136Z,22.70
2022-08-21T20:07:26.980Z,22.70
2022-08-21T20:11:10.474Z,22.60
2022-08-21T20:14:53.684Z,22.50
2022-08-21T20:18:37.168Z,22.40
2022-08-21T20:22:23.996Z,22.30
2022-08-21T20:26:06.452Z,22.20
2022-08-21T20:29:48.653Z,22.10
2022-08-21T20:33:32.332Z,22.00
2022-08-21T20:41:30.562Z,21.80
2022-08-21T20:49:27.815Z,21.60
2022-08-21T20:53:20.109Z,21.50
2022-08-21T20:57:37.264Z,21.40
2022-08-21T21:01:20.392Z,21.30
2022-08-21T21:05:19.758Z,21.20
2022-08-21T21:09:13.387Z,21.10
2022-08-21T21:13:01.499Z,21.00
2022-08-21T21:16:57.563Z,20.90
2022-08-21T21:20:57.204Z,20.80
2022-08-21T21:25:04.092Z,20.80
2022-08-21T21:28:53.720Z,20.70
2022-08-21T21:32:35.776Z,20.70
2022-08-21T21:36:29.721Z,20.50
2022-08-21T21:40:41.469Z,20.40
2022-08-21T21:44:51.089Z,20.30
2022-08-21T21:48:54.428Z,20.20
2022-08-21T21:52:57.590Z,20.10
2022-08-21T21:56:46.335Z,20.00
2022-08-21T22:00:33.617Z,19.90
2022-08-21T22:04:28.550Z,19.80
2022-08-21T22:08:20.610Z,19.70
2022-08-21T22:12:28.847Z,19.60
2022-08-21T22:16:11.573Z,19.50
2022-08-21T22:19:57.580Z,19.40
2022-08-21T22:23:49.888Z,19.20
2022-08-21T22:27:36.896Z,19.20
2022-08-21T22:31:26.978Z,19.10
2022-08-21T22:35:29.947Z,19.10
2022-08-21T22:39:26.564Z,19.00
2022-08-21T22:43:16.280Z,19.00
2022-08-21T22:47:03.669Z,18.90
2022-08-21T22:50:56.790Z,18.80
2022-08-21T22:54:45.271Z,18.80
2022-08-21T22:58:31.462Z,18.70
2022-08-21T23:02:29.071Z,18.70
2022-08-21T23:06:29.506Z,18.70
2022-08-21T23:10:26.391Z,18.60
2022-08-21T23:14:13.954Z,18.50
2022-08-21T23:18:17.103Z,18.50
2022-08-21T23:22:17.456Z,18.50
2022-08-21T23:26:28.536Z,18.40
2022-08-21T23:30:18.804Z,18.30
2022-08-21T23:34:15.899Z,18.30
2022-08-21T23:38:41.597Z,18.20
2022-08-21T23:43:06.002Z,18.20
2022-08-21T23:47:11.789Z,18.10
2022-08-21T23:51:04.557Z,18.10
2022-08-21T23:55:10.637Z,18.00
2022-08-21T23:58:57.454Z,17.90
